Latest Weather Observations for Sheoaks

IDV60801

Issued at 9:42 am EDT Thursday 23 January 2020 (issued every 10 minutes, with the page automatically refreshed every 10 minutes)

About weather observations | Map of weather stations | Latest weather observations for VIC | Other Formats
Station Details ID: 087168 Name: SHEOAKS Lat: -37.91 Lon: 144.13 Height: 236.7 m
Data from the previous 72 hours. | See also: Recent months at Sheoaks
Date/Time
EDT
Temp
°C
App
Temp
°C
Dew
Point
°C
Rel
Hum
%
Delta-T
°C
Wind Press
QNH
hPa
Press
MSL
hPa
Rain since
9am
mm
Dir  Spd
km/h
Gust
km/h
Spd
kts
Gust
kts
23/09:30am 13.9 10.3 11.8 87 1.1 NNW 22 32 12 17 996.5 995.7 0.0
23/09:00am 13.3 10.8 12.2 93 0.6 NNW 17 26 9 14 996.6 995.8 27.2
23/08:30am 12.4 10.8 11.5 94 0.5 NNW 11 17 6 9 996.5 995.7 27.2
23/08:00am 12.1 10.4 11.3 95 0.4 NNW 11 15 6 8 996.0 995.2 27.2
23/07:30am 12.1 10.8 11.3 95 0.4 NNW 9 13 5 7 996.1 995.3 26.8
23/07:00am 12.1 10.8 11.3 95 0.4 WNW 9 13 5 7 996.1 995.3 25.6
23/06:30am 11.9 10.6 11.3 96 0.3 WNW 9 13 5 7 996.4 995.6 25.2
23/06:00am 11.8 10.9 11.2 96 0.3 NNW 7 11 4 6 996.2 995.4 25.2
23/05:30am 11.5 10.7 10.9 96 0.3 NW 6 9 3 5 996.0 995.2 25.2
23/05:00am 11.3 10.2 10.7 96 0.3 NNW 7 13 4 7 996.3 995.5 25.2
23/04:30am 11.0 9.8 10.2 95 0.4 N 7 13 4 7 996.6 995.8 24.4
23/04:00am 10.9 9.3 10.1 95 0.4 N 9 15 5 8 997.0 996.2 23.4
23/03:30am 11.3 10.4 10.5 95 0.4 NNW 6 7 3 4 997.8 997.0 21.6
23/03:00am 11.2 10.0 10.4 95 0.4 N 7 9 4 5 998.4 997.5 20.0
23/02:30am 11.3 10.1 10.4 94 0.5 N 7 11 4 6 998.4 997.5 18.0
23/02:00am 11.3 10.1 10.4 94 0.5 NNW 7 9 4 5 998.9 998.1 15.6
23/01:30am 11.4 10.5 10.5 94 0.5 N 6 7 3 4 999.3 998.5 14.2
23/01:00am 11.5 10.4 10.6 94 0.5 NW 7 11 4 6 999.9 999.1 13.4
23/12:30am 11.6 11.0 10.5 93 0.6 N 4 7 2 4 1000.0 999.2 11.2
23/12:00am 11.8 10.9 10.7 93 0.6 N 6 9 3 5 1000.4 999.6 10.0
 
Date/Time
EDT
Temp
°C
App
Temp
°C
Dew
Point
°C
Rel
Hum
%
Delta-T
°C
Wind Press
QNH
hPa
Press
MSL
hPa
Rain since
9am
mm
Dir  Spd
km/h
Gust
km/h
Spd
kts
Gust
kts
22/11:30pm 11.9 11.0 10.8 93 0.6 N 6 7 3 4 1001.0 1000.2 9.0
22/11:00pm 12.0 11.1 10.7 92 0.7 NW 6 11 3 6 1000.9 1000.1 7.2
22/10:30pm 11.8 11.2 10.4 91 0.7 SW 4 7 2 4 1000.6 999.8 6.0
22/10:00pm 12.1 9.9 10.7 91 0.7 WSW 13 22 7 12 1001.1 1000.3 4.0
22/09:30pm 13.9 12.2 12.6 92 0.7 WSW 13 22 7 12 1000.2 999.4 2.8
22/09:00pm 14.1 13.6 12.7 91 0.8 SSW 7 17 4 9 1000.6 999.8 1.4
22/08:30pm 14.8 13.7 13.0 89 1.0 SSW 11 17 6 9 999.9 999.1 0.2
22/08:00pm 15.5 13.0 12.4 82 1.7 SW 17 28 9 15 999.2 998.4 0.0
22/07:30pm 18.2 15.3 12.2 68 3.4 WSW 19 28 10 15 998.9 998.1 0.0
22/07:00pm 19.2 16.7 12.2 64 4.0 WSW 17 32 9 17 998.1 997.3 0.0
22/06:30pm 19.5 16.6 12.8 65 3.8 SW 20 39 11 21 997.8 997.0 0.0
22/06:00pm 20.2 16.7 12.2 60 4.6 WSW 22 43 12 23 997.3 996.5 0.0
22/05:46pm 22.6 16.8 10.7 47 6.6 NW 32 54 17 29 996.5 995.7 0.0
22/05:44pm 28.9 22.2 8.0 27 11.5 NNW 33 56 18 30 996.2 995.4 0.0
22/05:30pm 30.0 21.3 6.0 22 12.8 NNW 41 74 22 40 995.2 994.4 0.0
22/05:00pm 30.3 21.1 6.2 22 13.0 NNW 44 72 24 39 995.8 995.0 0.0
22/04:30pm 31.4 23.9 6.5 21 13.5 NNW 35 59 19 32 996.3 995.5 0.0
22/04:00pm 29.6 22.6 6.9 24 12.4 N 33 57 18 31 996.6 995.8 0.0
22/03:30pm 31.7 24.1 7.4 22 13.4 N 37 59 20 32 996.8 996.0 0.0
22/03:01pm 30.5 22.9 5.7 21 13.2 NNW 35 56 19 30 997.4 996.6 0.0
22/03:00pm 30.3 22.7 5.6 21 13.2 NNW 35 50 19 27 997.5 996.7 0.0
22/02:30pm 30.0 21.3 6.0 22 12.8 NNW 41 70 22 38 998.3 997.4 0.0
22/02:00pm 29.6 22.6 6.9 24 12.4 N 33 61 18 33 998.9 998.1 0.0
22/01:30pm 29.4 20.6 7.3 25 12.0 N 43 65 23 35 999.2 998.4 0.0
22/01:00pm 28.9 21.0 8.0 27 11.5 N 39 57 21 31 999.7 998.9 0.0
22/12:30pm 28.9 21.4 8.0 27 11.5 NNW 37 61 20 33 1000.3 999.5 0.0
22/12:00pm 29.9 21.6 7.8 25 12.2 N 41 61 22 33 1000.3 999.5 0.0
22/11:30am 27.9 20.6 8.7 30 10.6 NNW 37 67 20 36 1000.5 999.7 0.0
22/11:00am 26.7 18.7 9.1 33 9.8 N 41 63 22 34 1000.8 1000.0 0.0
22/10:32am 25.8 18.9 8.8 34 9.3 N 35 56 19 30 1001.0 1000.2 0.0
22/10:30am 25.8 18.5 8.8 34 9.3 N 37 56 20 30 1000.9 1000.1 0.0
22/10:00am 25.8 18.8 8.3 33 9.6 N 35 65 19 35 1001.2 1000.4 0.0
22/09:30am 24.8 18.3 8.3 35 8.9 N 32 52 17 28 1001.8 1001.0 0.0
22/09:00am 23.6 16.0 7.7 36 8.5 N 37 56 20 30 1001.5 1000.7 0.0
22/08:38am 23.1 15.1 7.6 37 8.2 N 39 57 21 31 1001.3 1000.5 0.0
22/08:30am 23.1 15.9 7.6 37 8.2 N 35 54 19 29 1001.4 1000.6 0.0
22/08:00am 22.7 15.0 7.3 37 8.1 N 37 57 20 31 1001.1 1000.3 0.0
22/07:36am 22.5 16.2 7.5 38 7.9 N 30 50 16 27 1001.8 1001.0 0.0
22/07:30am 22.0 15.8 7.8 40 7.5 N 30 39 16 21 1002.0 1001.2 0.0
22/07:00am 21.5 16.0 7.7 41 7.3 N 26 41 14 22 1002.0 1001.2 0.0
22/06:30am 20.9 15.4 7.5 42 7.0 N 26 39 14 21 1002.3 1001.6 0.0
22/06:00am 20.6 14.7 7.6 43 6.8 N 28 41 15 22 1002.6 1001.9 0.0
22/05:30am 19.8 15.0 7.5 45 6.4 N 22 32 12 17 1003.1 1002.3 0.0
22/05:00am 18.7 14.5 8.1 50 5.5 N 20 30 11 16 1003.4 1002.6 0.0
22/04:30am 15.9 13.1 8.6 62 3.8 N 13 17 7 9 1003.8 1003.0 0.0
22/04:00am 13.0 11.5 9.3 78 1.9 N 7 13 4 7 1004.0 1003.2 0.0
22/03:30am 12.0 11.2 9.7 86 1.2 NNW 4 7 2 4 1004.3 1003.5 0.0
22/03:00am 11.7 11.2 9.4 86 1.2 N 2 6 1 3 1004.6 1003.8 0.0
22/02:30am 11.7 10.5 9.6 87 1.1 N 6 7 3 4 1005.0 1004.2 0.0
22/02:00am 11.9 10.8 10.0 88 1.0 NNW 6 7 3 4 1005.5 1004.7 0.0
22/01:30am 11.7 10.5 9.6 87 1.1 N 6 6 3 3 1005.9 1005.2 0.0
22/01:00am 12.1 10.8 10.0 87 1.1 NE 7 11 4 6 1006.3 1005.6 0.0
22/12:30am 11.4 9.9 9.1 86 1.2 NE 7 9 4 5 1006.7 1006.0 0.0
22/12:00am 11.5 10.6 9.1 85 1.2 NE 4 6 2 3 1006.9 1006.2 0.0
 
Date/Time
EDT
Temp
°C
App
Temp
°C
Dew
Point
°C
Rel
Hum
%
Delta-T
°C
Wind Press
QNH
hPa
Press
MSL
hPa
Rain since
9am
mm
Dir  Spd
km/h
Gust
km/h
Spd
kts
Gust
kts
21/11:30pm 11.3 9.8 8.5 83 1.4 ENE 6 7 3 4 1007.3 1006.5 0.0
21/11:00pm 11.8 10.2 8.8 82 1.5 ENE 7 9 4 5 1007.7 1006.9 0.0
21/10:30pm 12.2 10.5 8.5 78 1.9 ENE 7 9 4 5 1008.2 1007.4 0.0
21/10:00pm 12.9 11.3 8.6 75 2.2 E 7 9 4 5 1008.4 1007.6 0.0
21/09:30pm 13.6 11.6 8.7 72 2.5 E 9 11 5 6 1008.2 1007.4 0.0
21/09:00pm 14.4 12.0 8.8 69 2.9 E 11 17 6 9 1007.9 1007.1 0.0
21/08:30pm 15.1 12.4 8.8 66 3.2 E 13 19 7 10 1007.7 1006.9 0.0
21/08:00pm 16.2 13.9 8.9 62 3.8 ESE 11 15 6 8 1007.8 1007.0 0.0
21/07:30pm 17.0 13.6 9.2 60 4.1 ESE 17 24 9 13 1007.8 1007.0 0.0
21/07:00pm 17.8 14.0 9.2 57 4.6 ESE 19 28 10 15 1007.7 1006.9 0.0
21/06:30pm 18.9 15.0 9.4 54 5.1 ESE 20 28 11 15 1007.6 1006.8 0.0
21/06:00pm 19.5 15.4 10.0 54 5.2 ESE 22 28 12 15 1007.6 1006.8 0.0
21/05:30pm 21.4 17.7 10.3 49 6.1 ESE 20 28 11 15 1007.7 1006.9 0.0
21/05:00pm 24.8 22.4 5.1 28 10.1 NW 7 15 4 8 1007.4 1006.6 0.0
21/04:30pm 24.5 21.3 5.3 29 9.8 WSW 11 19 6 10 1007.8 1007.0 0.0
21/04:00pm 23.1 20.9 5.1 31 9.1 NE 6 13 3 7 1008.1 1007.3 0.0
21/03:30pm 23.4 20.6 5.3 31 9.2 SW 9 20 5 11 1008.2 1007.4 0.0
21/03:00pm 22.3 19.1 5.3 33 8.6 W 11 19 6 10 1008.7 1007.9 0.0
21/02:30pm 21.6 18.4 5.1 34 8.2 WNW 11 20 6 11 1009.0 1008.2 0.0
21/02:00pm 20.7 17.6 5.5 37 7.6 WSW 11 26 6 14 1009.3 1008.5 0.0
21/01:30pm 20.6 18.3 5.8 38 7.4 WSW 7 15 4 8 1009.6 1008.9 0.0
21/01:00pm 20.0 16.9 7.4 44 6.5 SSW 13 24 7 13 1010.1 1009.4 0.0
21/12:30pm 18.7 16.3 6.9 46 6.0 WNW 9 15 5 8 1010.5 1009.8 0.0
21/12:00pm 18.5 16.2 7.6 49 5.6 W 9 15 5 8 1010.7 1010.0 0.0
21/11:30am 17.0 14.7 7.4 53 4.9 WSW 9 19 5 10 1011.0 1010.3 0.0
21/11:00am 16.0 13.5 8.0 59 4.1 W 11 17 6 9 1011.2 1010.5 0.0
21/10:30am 14.9 12.7 7.7 62 3.6 W 9 15 5 8 1011.6 1010.8 0.0
21/10:00am 14.5 12.2 7.5 63 3.5 SW 9 15 5 8 1011.6 1010.8 0.0
21/09:30am 13.6 11.2 7.2 65 3.2 WSW 9 13 5 7 1011.4 1010.7 0.0
21/09:00am 13.8 12.0 9.3 74 2.3 WSW 9 15 5 8 1011.2 1010.5 4.4
21/08:30am 13.1 11.5 10.1 82 1.6 WSW 9 13 5 7 1011.1 1010.4 4.4
21/08:00am 12.4 10.8 10.3 87 1.1 W 9 13 5 7 1010.7 1010.0 4.4
21/07:30am 11.6 9.6 10.0 90 0.8 W 11 17 6 9 1010.2 1009.5 4.4
21/07:00am 11.7 9.7 10.1 90 0.8 W 11 17 6 9 1010.1 1009.4 4.4
21/06:30am 11.3 9.5 9.6 89 0.9 W 9 11 5 6 1009.8 1009.1 4.4
21/06:00am 11.5 9.8 9.8 89 0.9 W 9 15 5 8 1009.4 1008.6 4.4
21/05:30am 11.2 9.7 9.3 88 1.0 W 7 11 4 6 1009.2 1008.4 4.4
21/05:00am 11.1 9.2 9.0 87 1.1 W 9 13 5 7 1008.9 1008.1 4.4
21/04:30am 11.6 9.4 9.3 86 1.2 WSW 11 17 6 9 1008.7 1007.9 4.4
21/04:00am 11.8 9.2 9.5 86 1.2 W 13 19 7 10 1008.7 1007.9 4.4
21/03:30am 12.0 9.9 9.7 86 1.2 W 11 17 6 9 1008.8 1008.0 4.4
21/03:00am 12.2 10.6 10.1 87 1.1 W 9 15 5 8 1008.8 1008.0 4.4
21/02:30am 12.4 11.1 10.1 86 1.2 WSW 7 13 4 7 1008.9 1008.1 4.4
21/02:00am 12.6 11.1 10.5 87 1.1 WSW 9 20 5 11 1009.0 1008.2 4.4
21/01:30am 12.6 10.8 10.8 89 1.0 WSW 11 17 6 9 1009.2 1008.4 4.4
21/01:00am 12.5 10.3 10.9 90 0.8 WSW 13 20 7 11 1009.2 1008.4 4.4
21/12:30am 12.5 10.0 11.1 91 0.7 WSW 15 24 8 13 1009.4 1008.6 4.4
21/12:00am 12.7 10.7 11.6 93 0.6 WSW 13 22 7 12 1009.5 1008.8 4.4
 
Date/Time
EDT
Temp
°C
App
Temp
°C
Dew
Point
°C
Rel
Hum
%
Delta-T
°C
Wind Press
QNH
hPa
Press
MSL
hPa
Rain since
9am
mm
Dir  Spd
km/h
Gust
km/h
Spd
kts
Gust
kts
20/11:30pm 12.7 10.8 11.8 94 0.5 WSW 13 20 7 11 1009.5 1008.8 4.4
20/11:00pm 13.2 11.5 12.4 95 0.4 WSW 13 19 7 10 1009.5 1008.8 4.4
20/10:30pm 13.4 12.2 12.8 96 0.3 WSW 11 17 6 9 1009.2 1008.4 4.4
20/10:00pm 13.1 11.8 12.5 96 0.3 WSW 11 19 6 10 1009.1 1008.3 4.4
20/09:30pm 13.7 13.0 13.2 97 0.3 WSW 9 19 5 10 1008.7 1007.9 4.4
20/09:00pm 13.4 12.9 12.8 96 0.3 WSW 7 13 4 7 1008.3 1007.5 4.4
20/08:30pm 13.7 12.6 13.1 96 0.3 SW 11 20 6 11 1008.1 1007.3 4.0
20/08:00pm 14.2 14.2 13.6 96 0.3 SSW 6 11 3 6 1007.8 1007.0 3.4
20/07:30pm 13.9 11.6 13.1 95 0.4 S 17 24 9 13 1007.5 1006.7 2.6
20/07:00pm 14.7 13.4 13.7 94 0.6 S 13 20 7 11 1006.9 1006.2 1.0
20/06:30pm 15.3 14.0 13.8 91 0.9 S 13 22 7 12 1006.4 1005.7 0.2
20/06:00pm 15.4 13.4 13.8 90 0.9 S 17 24 9 13 1006.1 1005.4 0.2
20/05:30pm 15.5 12.9 13.7 89 1.0 S 20 30 11 16 1006.1 1005.4 0.2
20/05:00pm 15.7 13.4 14.1 90 0.9 S 19 28 10 15 1006.0 1005.3 0.2
20/04:30pm 15.9 14.3 15.1 95 0.5 S 17 32 9 17 1005.8 1005.0 0.2
20/04:00pm 15.7 14.5 15.1 96 0.4 SSE 15 28 8 15 1005.9 1005.2 0.2
20/03:30pm 15.9 14.1 15.4 97 0.3 S 19 30 10 16 1005.7 1004.9 0.2
20/03:00pm 15.8 14.7 15.2 96 0.4 S 15 28 8 15 1006.0 1005.3 0.0
20/02:30pm 15.9 14.3 15.1 95 0.5 SSE 17 28 9 15 1005.8 1005.0 0.0
20/02:00pm 16.5 15.1 15.5 94 0.6 SSE 17 35 9 19 1005.8 1005.0 0.0
20/01:30pm 16.2 14.4 15.4 95 0.5 S 19 32 10 17 1006.0 1005.3 0.0
20/01:00pm 16.5 14.7 15.5 94 0.6 S 19 28 10 15 1006.1 1005.4 0.0
20/12:30pm 16.9 15.1 15.4 91 0.9 S 19 30 10 16 1006.2 1005.5 0.0
20/12:00pm 17.8 16.9 15.8 88 1.2 SSE 15 22 8 12 1006.2 1005.5 0.0
20/11:30am 18.3 17.8 17.0 92 0.8 SSE 15 28 8 15 1006.2 1005.5 0.0
20/11:00am 18.5 18.0 17.7 95 0.5 SSE 17 24 9 13 1005.9 1005.2 0.0
20/10:30am 17.6 17.6 17.1 97 0.3 SSE 13 22 7 12 1005.8 1005.0 0.0
20/10:00am 17.6 18.4 17.3 98 0.2 SSE 9 15 5 8 1005.8 1005.0 0.0

Other formats

Comma delimited format used in spreadsheet applications
http://www.bom.gov.au/fwo/IDV60801/IDV60801.94863.axf

JavaScript Object Notation format (JSON) in row-major order
http://www.bom.gov.au/fwo/IDV60801/IDV60801.94863.json

Data quality

Most of these data are generated automatically and are frequently updated. Quality checks on data are not normally performed. It is possible for incorrect values to appear. Refer to information at About Latest Weather Observations and please check the disclaimer before using these data.